createdAt,value
2022-08-28T00:00:20.643Z,102057.19
2022-08-28T00:02:48.263Z,102044.56
2022-08-28T00:05:17.390Z,102063.38
2022-08-28T00:07:47.642Z,102054.53
2022-08-28T00:10:16.943Z,102055.13
2022-08-28T00:12:44.669Z,102054.97
2022-08-28T00:15:15.189Z,102062.66
2022-08-28T00:17:42.186Z,102061.19
2022-08-28T00:20:11.050Z,102065.16
2022-08-28T00:22:39.241Z,102065.81
2022-08-28T00:25:08.035Z,102063.72
2022-08-28T00:27:52.634Z,102057.47
2022-08-28T00:30:33.033Z,102059.31
2022-08-28T00:33:04.878Z,102070.13
2022-08-28T00:35:31.726Z,102056.25
2022-08-28T00:37:58.530Z,102059.88
2022-08-28T00:40:32.398Z,102061.19
2022-08-28T00:43:02.049Z,102072.22
2022-08-28T00:45:29.384Z,102041.50
2022-08-28T00:47:56.417Z,102064.88
2022-08-28T00:50:26.791Z,102077.28
2022-08-28T00:52:59.826Z,102054.09
2022-08-28T00:55:28.702Z,102062.88
2022-08-28T00:58:00.454Z,102059.81
2022-08-28T01:00:32.861Z,102060.19
2022-08-28T01:03:00.491Z,102052.50
2022-08-28T01:05:28.939Z,102062.81
2022-08-28T01:07:59.141Z,102065.47
2022-08-28T01:10:29.134Z,102058.22
2022-08-28T01:12:56.921Z,102059.16
2022-08-28T01:15:28.678Z,102071.16
2022-08-28T01:18:03.531Z,102067.84
2022-08-28T01:20:35.273Z,102070.75
2022-08-28T01:23:25.158Z,102068.78
2022-08-28T01:25:52.516Z,102070.75
2022-08-28T01:28:19.124Z,102062.22
2022-08-28T01:30:48.112Z,102046.59
2022-08-28T01:33:15.906Z,102050.56
2022-08-28T01:35:44.873Z,102076.72
2022-08-28T01:38:11.983Z,102080.16
2022-08-28T01:40:47.073Z,102074.28
2022-08-28T01:43:21.177Z,102075.78
2022-08-28T01:45:53.294Z,102075.34
2022-08-28T01:48:22.613Z,102076.81
2022-08-28T01:50:50.550Z,102072.03
2022-08-28T01:53:25.020Z,102062.78
2022-08-28T01:55:55.617Z,102083.69
2022-08-28T01:58:23.267Z,102084.44
2022-08-28T02:00:50.002Z,102077.59
2022-08-28T02:03:16.693Z,102080.63
2022-08-28T02:05:43.800Z,102073.81
2022-08-28T02:08:10.652Z,102066.88
2022-08-28T02:10:40.050Z,102084.19
2022-08-28T02:13:07.980Z,102076.72
2022-08-28T02:15:36.169Z,102079.28
2022-08-28T02:18:02.986Z,102089.97
2022-08-28T02:20:29.558Z,102085.38
2022-08-28T02:22:57.675Z,102085.72
2022-08-28T02:25:25.538Z,102063.38
2022-08-28T02:27:52.147Z,102083.56
2022-08-28T02:30:19.498Z,102091.66
2022-08-28T02:32:46.857Z,102083.88
2022-08-28T02:35:16.431Z,102086.66
2022-08-28T02:37:44.375Z,102070.66
2022-08-28T02:40:14.601Z,102063.28
2022-08-28T02:42:42.690Z,102084.84
2022-08-28T02:45:11.691Z,102091.88
2022-08-28T02:47:42.936Z,102088.38
2022-08-28T02:50:13.039Z,102093.47
2022-08-28T02:52:40.597Z,102087.28
2022-08-28T02:55:08.799Z,102079.81
2022-08-28T02:57:35.489Z,102077.38
2022-08-28T03:00:07.280Z,102087.38
2022-08-28T03:02:33.831Z,102084.94
2022-08-28T03:05:00.966Z,102086.84
2022-08-28T03:07:29.310Z,102085.25
2022-08-28T03:09:56.471Z,102089.53
2022-08-28T03:12:24.422Z,102089.84
2022-08-28T03:14:54.859Z,102094.13
2022-08-28T03:17:22.316Z,102072.00
2022-08-28T03:19:50.280Z,102095.06
2022-08-28T03:22:38.752Z,102090.38
2022-08-28T03:25:06.386Z,102101.78
2022-08-28T03:27:33.160Z,102087.16
2022-08-28T03:29:59.885Z,102106.47
2022-08-28T03:32:26.889Z,102090.13
2022-08-28T03:34:55.916Z,102113.84
2022-08-28T03:37:22.503Z,102099.28
2022-08-28T03:39:49.346Z,102104.25
2022-08-28T03:42:16.057Z,102077.41
2022-08-28T03:44:42.689Z,102109.56
2022-08-28T03:47:09.327Z,102114.78
2022-08-28T03:49:36.842Z,102107.97
2022-08-28T03:52:03.715Z,102106.53
2022-08-28T03:54:31.702Z,102111.56
2022-08-28T03:56:58.406Z,102095.66
2022-08-28T03:59:26.649Z,102121.16
2022-08-28T04:01:58.557Z,102120.28
2022-08-28T04:04:25.107Z,102119.44
2022-08-28T04:06:51.572Z,102127.25
2022-08-28T04:09:18.189Z,102125.75
2022-08-28T04:11:44.724Z,102126.13
2022-08-28T04:14:11.869Z,102133.06
2022-08-28T04:16:38.610Z,102123.97
2022-08-28T04:19:05.277Z,102127.69
2022-08-28T04:21:31.850Z,102136.16
2022-08-28T04:23:58.478Z,102116.69
2022-08-28T04:26:26.892Z,102138.38
2022-08-28T04:28:55.066Z,102100.91
2022-08-28T04:31:32.249Z,102134.38
2022-08-28T04:34:00.821Z,102144.97
2022-08-28T04:36:27.342Z,102135.44
2022-08-28T04:38:55.005Z,102138.22
2022-08-28T04:41:21.506Z,102143.56
2022-08-28T04:43:48.733Z,102151.63
2022-08-28T04:46:15.542Z,102135.19
2022-08-28T04:48:42.685Z,102152.19
2022-08-28T04:51:10.822Z,102155.72
2022-08-28T04:53:38.355Z,102160.41
2022-08-28T04:56:07.854Z,102154.00
2022-08-28T04:58:34.824Z,102149.09
2022-08-28T05:01:12.696Z,102151.63
2022-08-28T05:03:40.050Z,102149.81
2022-08-28T05:06:07.518Z,102159.91
2022-08-28T05:08:34.030Z,102148.59
2022-08-28T05:11:22.083Z,102165.03
2022-08-28T05:14:01.179Z,102163.97
2022-08-28T05:16:27.875Z,102158.00
2022-08-28T05:18:54.449Z,102157.16
2022-08-28T05:21:22.748Z,102149.44
2022-08-28T05:23:51.364Z,102167.50
2022-08-28T05:26:19.926Z,102159.03
2022-08-28T05:28:47.643Z,102174.34
2022-08-28T05:31:18.740Z,102149.25
2022-08-28T05:33:47.333Z,102175.88
2022-08-28T05:36:15.744Z,102171.47
2022-08-28T05:38:42.457Z,102158.44
2022-08-28T05:41:09.053Z,102178.13
2022-08-28T05:43:36.876Z,102176.09
2022-08-28T05:46:07.531Z,102181.34
2022-08-28T05:48:37.133Z,102165.00
2022-08-28T05:51:07.763Z,102145.78
2022-08-28T05:53:36.224Z,102183.00
2022-08-28T05:56:04.835Z,102165.47
2022-08-28T05:58:32.456Z,102176.84
2022-08-28T06:01:23.064Z,102181.75
2022-08-28T06:03:57.999Z,102189.47
2022-08-28T06:06:26.316Z,102184.13
2022-08-28T06:08:58.779Z,102171.31
2022-08-28T06:11:27.133Z,102182.34
2022-08-28T06:14:01.490Z,102169.84
2022-08-28T06:16:28.967Z,102184.56
2022-08-28T06:18:55.967Z,102151.59
2022-08-28T06:21:22.658Z,102179.47
2022-08-28T06:23:49.154Z,102174.38
2022-08-28T06:26:15.802Z,102146.66
2022-08-28T06:28:42.281Z,102187.22
2022-08-28T06:31:23.587Z,102193.81
2022-08-28T06:33:56.297Z,102187.63
2022-08-28T06:36:24.305Z,102192.72
2022-08-28T06:38:51.419Z,102197.44
2022-08-28T06:41:18.500Z,102205.88
2022-08-28T06:43:45.042Z,102204.25
2022-08-28T06:46:11.606Z,102200.50
2022-08-28T06:48:38.196Z,102210.75
2022-08-28T06:51:10.116Z,102206.31
2022-08-28T06:53:38.289Z,102207.81
2022-08-28T06:56:08.739Z,102207.53
2022-08-28T06:58:38.099Z,102206.97
2022-08-28T07:01:08.560Z,102198.66
2022-08-28T07:03:35.161Z,102208.44
2022-08-28T07:06:03.317Z,102208.13
2022-08-28T07:08:30.277Z,102207.66
2022-08-28T07:10:57.222Z,102196.25
2022-08-28T07:13:23.730Z,102207.06
2022-08-28T07:15:50.735Z,102176.44
2022-08-28T07:18:18.501Z,102206.34
2022-08-28T07:20:46.002Z,102202.41
2022-08-28T07:23:12.768Z,102205.81
2022-08-28T07:25:42.785Z,102204.94
2022-08-28T07:28:09.393Z,102212.88
2022-08-28T07:30:38.774Z,102217.91
2022-08-28T07:33:05.472Z,102217.75
2022-08-28T07:35:35.037Z,102203.75
2022-08-28T07:38:01.622Z,102220.44
2022-08-28T07:40:28.378Z,102213.25
2022-08-28T07:43:13.445Z,102214.81
2022-08-28T07:45:40.763Z,102211.72
2022-08-28T07:48:11.452Z,102217.50
2022-08-28T07:50:38.449Z,102224.06
2022-08-28T07:53:08.235Z,102223.44
2022-08-28T07:55:34.699Z,102224.31
2022-08-28T07:58:01.644Z,102225.19
2022-08-28T08:00:28.271Z,102206.31
2022-08-28T08:02:54.944Z,102230.06
2022-08-28T08:05:21.771Z,102224.56
2022-08-28T08:07:48.478Z,102218.88
2022-08-28T08:10:15.080Z,102228.25
2022-08-28T08:12:47.250Z,102214.38
2022-08-28T08:15:14.129Z,102208.25
2022-08-28T08:17:40.698Z,102227.94
2022-08-28T08:20:08.609Z,102232.19
2022-08-28T08:22:35.828Z,102238.31
2022-08-28T08:25:04.963Z,102245.72
2022-08-28T08:27:38.770Z,102230.06
2022-08-28T08:30:09.968Z,102224.75
2022-08-28T08:32:39.184Z,102213.38
2022-08-28T08:35:06.087Z,102212.13
2022-08-28T08:37:32.812Z,102237.97
2022-08-28T08:39:59.491Z,102226.41
2022-08-28T08:42:32.999Z,102237.78
2022-08-28T08:45:04.236Z,102230.84
2022-08-28T08:47:47.584Z,102235.97
2022-08-28T08:50:34.357Z,102230.47
2022-08-28T08:53:23.522Z,102225.50
2022-08-28T08:55:55.537Z,102227.63
2022-08-28T08:58:32.537Z,102226.81
2022-08-28T09:01:09.686Z,102218.56
2022-08-28T09:04:24.703Z,102216.81
2022-08-28T09:07:07.921Z,102224.06
2022-08-28T09:09:56.420Z,102220.88
2022-08-28T09:12:30.150Z,102218.38
2022-08-28T09:15:05.522Z,102221.88
2022-08-28T09:17:43.179Z,102201.16
2022-08-28T09:20:12.268Z,102222.13
2022-08-28T09:22:44.379Z,102205.81
2022-08-28T09:25:13.125Z,102225.53
2022-08-28T09:27:52.858Z,102220.91
2022-08-28T09:30:30.637Z,102217.28
2022-08-28T09:33:01.053Z,102216.44
2022-08-28T09:35:30.778Z,102222.75
2022-08-28T09:38:17.589Z,102222.50
2022-08-28T09:41:02.952Z,102223.47
2022-08-28T09:43:31.621Z,102216.56
2022-08-28T09:46:31.908Z,102228.59
2022-08-28T09:49:12.237Z,102229.50
2022-08-28T09:51:39.927Z,102233.38
2022-08-28T09:54:19.309Z,102209.94
2022-08-28T09:56:46.133Z,102221.53
2022-08-28T09:59:15.004Z,102221.91
2022-08-28T10:01:44.702Z,102227.00
2022-08-28T10:04:23.790Z,102216.72
2022-08-28T10:07:03.283Z,102224.94
2022-08-28T10:09:55.588Z,102230.19
2022-08-28T10:12:33.634Z,102213.91
2022-08-28T10:15:10.271Z,102233.09
2022-08-28T10:17:40.168Z,102226.06
2022-08-28T10:20:24.270Z,102208.09
2022-08-28T10:23:03.120Z,102226.44
2022-08-28T10:25:46.358Z,102229.69
2022-08-28T10:28:39.122Z,102228.59
2022-08-28T10:31:22.532Z,102216.88
2022-08-28T10:33:51.836Z,102226.88
2022-08-28T10:36:34.525Z,102213.91
2022-08-28T10:39:13.921Z,102241.44
2022-08-28T10:41:45.913Z,102238.78
2022-08-28T10:44:19.931Z,102238.31
2022-08-28T10:46:57.414Z,102234.78
2022-08-28T10:49:31.700Z,102242.06
2022-08-28T10:52:05.015Z,102240.50
2022-08-28T10:54:55.106Z,102221.34
2022-08-28T10:57:41.087Z,102236.78
2022-08-28T11:00:19.786Z,102231.31
2022-08-28T11:02:51.401Z,102235.31
2022-08-28T11:05:28.668Z,102224.94
2022-08-28T11:08:00.872Z,102223.28
2022-08-28T11:10:34.986Z,102223.06
2022-08-28T11:13:03.711Z,102211.22
2022-08-28T11:15:36.745Z,102210.22
2022-08-28T11:18:16.619Z,102232.47
2022-08-28T11:20:56.141Z,102220.22
2022-08-28T11:23:30.283Z,102230.56
2022-08-28T11:26:03.930Z,102222.34
2022-08-28T11:28:36.732Z,102235.88
2022-08-28T11:31:06.343Z,102231.22
2022-08-28T11:33:42.135Z,102229.34
2022-08-28T11:36:20.680Z,102217.44
2022-08-28T11:38:56.011Z,102220.47
2022-08-28T11:41:23.158Z,102212.69
2022-08-28T11:44:15.340Z,102221.50
2022-08-28T11:46:50.666Z,102228.28
2022-08-28T11:49:26.907Z,102228.03
2022-08-28T11:52:24.434Z,102224.44
2022-08-28T11:55:24.690Z,102232.94
2022-08-28T12:00:49.525Z,102225.44
2022-08-28T12:03:32.093Z,102223.59
2022-08-28T12:06:00.651Z,102219.69
2022-08-28T12:08:46.727Z,102221.28
2022-08-28T12:11:41.420Z,102226.09
2022-08-28T12:14:10.133Z,102215.75
2022-08-28T12:17:21.584Z,102217.59
2022-08-28T12:19:56.381Z,102221.00
2022-08-28T12:22:26.587Z,102218.22
2022-08-28T12:25:04.456Z,102224.03
2022-08-28T12:27:32.010Z,102214.63
2022-08-28T12:30:01.979Z,102213.16
2022-08-28T12:32:41.527Z,102225.66
2022-08-28T12:35:12.389Z,102211.97
2022-08-28T12:37:54.151Z,102226.75
2022-08-28T12:40:43.472Z,102216.19
2022-08-28T12:43:15.398Z,102215.28
2022-08-28T12:45:50.827Z,102219.53
2022-08-28T12:48:52.835Z,102206.25
2022-08-28T12:51:27.008Z,102212.69
2022-08-28T12:53:56.269Z,102206.25
2022-08-28T12:56:24.427Z,102202.84
2022-08-28T12:58:51.441Z,102196.00
2022-08-28T13:01:31.850Z,102214.25
2022-08-28T13:04:04.807Z,102202.63
2022-08-28T13:06:38.995Z,102195.50
2022-08-28T13:09:14.103Z,102197.25
2022-08-28T13:11:46.423Z,102198.72
2022-08-28T13:14:12.970Z,102194.00
2022-08-28T13:16:46.447Z,102198.78
2022-08-28T13:19:27.780Z,102205.59
2022-08-28T13:22:00.325Z,102189.66
2022-08-28T13:24:30.853Z,102186.22
2022-08-28T13:27:04.974Z,102189.91
2022-08-28T13:29:32.408Z,102186.66
2022-08-28T13:32:17.448Z,102188.78
2022-08-28T13:35:09.470Z,102186.88
2022-08-28T13:37:50.977Z,102204.06
2022-08-28T13:40:55.734Z,102188.34
2022-08-28T13:43:11.028Z,102184.97
2022-08-28T13:45:42.652Z,102180.91
2022-08-28T13:48:11.084Z,102142.34
2022-08-28T13:50:40.129Z,102179.81
2022-08-28T13:53:06.886Z,102164.34
2022-08-28T13:55:34.985Z,102175.16
2022-08-28T13:58:01.514Z,102170.56
2022-08-28T14:00:31.434Z,102168.88
2022-08-28T14:03:16.574Z,102173.88
2022-08-28T14:05:44.500Z,102186.06
2022-08-28T14:08:11.146Z,102178.78
2022-08-28T14:10:37.697Z,102183.50
2022-08-28T14:13:04.389Z,102179.41
2022-08-28T14:15:30.898Z,102168.53
2022-08-28T14:17:58.009Z,102180.00
2022-08-28T14:20:24.807Z,102181.69
2022-08-28T14:22:51.334Z,102166.03
2022-08-28T14:25:18.058Z,102185.31
2022-08-28T14:27:44.886Z,102175.00
2022-08-28T14:30:11.675Z,102179.94
2022-08-28T14:32:38.533Z,102182.66
2022-08-28T14:35:05.912Z,102181.16
2022-08-28T14:37:33.180Z,102184.41
2022-08-28T14:39:59.733Z,102178.31
2022-08-28T14:42:27.112Z,102171.16
2022-08-28T14:44:53.981Z,102175.03
2022-08-28T14:47:21.007Z,102167.34
2022-08-28T14:49:47.790Z,102167.06
2022-08-28T14:52:14.647Z,102168.91
2022-08-28T14:54:41.193Z,102174.09
2022-08-28T14:57:07.878Z,102162.66
2022-08-28T14:59:34.520Z,102150.28
2022-08-28T15:02:01.742Z,102170.50
2022-08-28T15:04:34.863Z,102156.56
2022-08-28T15:07:05.434Z,102165.97
2022-08-28T15:09:35.148Z,102180.25
2022-08-28T15:12:01.924Z,102171.41
2022-08-28T15:14:28.488Z,102171.66
2022-08-28T15:16:55.002Z,102164.31
2022-08-28T15:19:23.314Z,102167.53
2022-08-28T15:21:52.788Z,102176.88
2022-08-28T15:24:22.879Z,102175.16
2022-08-28T15:26:49.412Z,102172.38
2022-08-28T15:29:16.549Z,102171.06
2022-08-28T15:31:45.842Z,102169.34
2022-08-28T15:34:16.182Z,102166.13
2022-08-28T15:36:44.786Z,102169.50
2022-08-28T15:39:44.859Z,102155.28
2022-08-28T15:42:11.489Z,102158.91
2022-08-28T15:44:38.943Z,102152.97
2022-08-28T15:47:06.267Z,102155.63
2022-08-28T15:49:43.592Z,102152.31
2022-08-28T15:52:15.563Z,102144.44
2022-08-28T15:54:42.732Z,102146.28
2022-08-28T15:57:09.193Z,102147.16
2022-08-28T15:59:48.698Z,102140.75
2022-08-28T16:02:18.608Z,102130.88
2022-08-28T16:04:45.282Z,102140.81
2022-08-28T16:07:11.813Z,102144.28
2022-08-28T16:09:38.480Z,102143.66
2022-08-28T16:12:05.324Z,102140.50
2022-08-28T16:14:33.077Z,102144.84
2022-08-28T16:17:00.760Z,102140.03
2022-08-28T16:19:32.640Z,102146.44
2022-08-28T16:21:59.149Z,102147.19
2022-08-28T16:24:25.697Z,102134.06
2022-08-28T16:26:52.245Z,102153.31
2022-08-28T16:29:18.901Z,102144.47
2022-08-28T16:31:47.958Z,102142.97
2022-08-28T16:34:15.692Z,102152.75
2022-08-28T16:36:48.106Z,102158.16
2022-08-28T16:39:14.692Z,102156.78
2022-08-28T16:41:42.193Z,102163.06
2022-08-28T16:44:08.832Z,102159.97
2022-08-28T16:46:35.422Z,102163.50
2022-08-28T16:49:02.532Z,102160.78
2022-08-28T16:51:29.682Z,102153.81
2022-08-28T16:53:56.448Z,102160.31
2022-08-28T16:56:26.553Z,102159.91
2022-08-28T16:58:53.502Z,102147.91
2022-08-28T17:01:23.886Z,102161.69
2022-08-28T17:03:51.962Z,102175.81
2022-08-28T17:06:31.300Z,102164.03
2022-08-28T17:08:58.385Z,102172.72
2022-08-28T17:11:27.052Z,102154.53
2022-08-28T17:13:53.759Z,102170.31
2022-08-28T17:16:22.234Z,102167.50
2022-08-28T17:18:52.394Z,102165.19
2022-08-28T17:21:39.118Z,102163.28
2022-08-28T17:24:06.736Z,102166.56
2022-08-28T17:26:33.569Z,102161.16
2022-08-28T17:29:00.111Z,102162.81
2022-08-28T17:31:26.659Z,102147.84
2022-08-28T17:33:53.241Z,102163.97
2022-08-28T17:36:25.629Z,102166.16
2022-08-28T17:39:05.590Z,102171.50
2022-08-28T17:41:33.474Z,102168.09
2022-08-28T17:44:00.721Z,102168.34
2022-08-28T17:46:27.305Z,102171.75
2022-08-28T17:48:55.486Z,102175.41
2022-08-28T17:51:33.840Z,102182.00
2022-08-28T17:54:10.009Z,102180.19
2022-08-28T17:56:36.515Z,102179.13
2022-08-28T17:59:03.216Z,102177.28
2022-08-28T18:01:29.892Z,102184.16
2022-08-28T18:03:56.450Z,102172.97
2022-08-28T18:06:23.247Z,102187.84
2022-08-28T18:08:52.022Z,102189.31
2022-08-28T18:11:19.328Z,102183.44
2022-08-28T18:13:46.473Z,102183.41
2022-08-28T18:16:13.422Z,102177.16
2022-08-28T18:18:40.515Z,102181.63
2022-08-28T18:21:08.872Z,102182.81
2022-08-28T18:23:35.449Z,102178.63
2022-08-28T18:26:02.025Z,102179.97
2022-08-28T18:28:28.720Z,102173.94
2022-08-28T18:30:55.866Z,102175.91
2022-08-28T18:33:24.401Z,102181.56
2022-08-28T18:35:51.432Z,102170.72
2022-08-28T18:38:20.541Z,102181.97
2022-08-28T18:40:47.520Z,102196.03
2022-08-28T18:43:14.100Z,102192.50
2022-08-28T18:45:41.045Z,102182.91
2022-08-28T18:48:10.405Z,102189.56
2022-08-28T18:50:37.978Z,102200.66
2022-08-28T18:53:05.422Z,102208.66
2022-08-28T18:55:32.820Z,102204.69
2022-08-28T18:58:01.705Z,102206.66
2022-08-28T19:00:29.116Z,102205.97
2022-08-28T19:02:55.991Z,102210.06
2022-08-28T19:05:23.052Z,102214.91
2022-08-28T19:07:50.466Z,102215.31
2022-08-28T19:10:32.789Z,102222.56
2022-08-28T19:13:01.231Z,102217.84
2022-08-28T19:15:28.623Z,102217.00
2022-08-28T19:17:55.521Z,102214.72
2022-08-28T19:20:22.550Z,102227.06
2022-08-28T19:22:49.118Z,102227.50
2022-08-28T19:25:28.571Z,102226.22
2022-08-28T19:27:59.337Z,102227.34
2022-08-28T19:30:32.717Z,102228.47
2022-08-28T19:33:01.162Z,102235.72
2022-08-28T19:35:27.889Z,102213.47
2022-08-28T19:37:54.693Z,102227.63
2022-08-28T19:40:22.239Z,102237.56
2022-08-28T19:42:50.191Z,102228.63
2022-08-28T19:45:17.981Z,102234.25
2022-08-28T19:47:44.860Z,102227.03
2022-08-28T19:50:13.885Z,102247.13
2022-08-28T19:52:41.420Z,102237.34
2022-08-28T19:55:08.881Z,102245.53
2022-08-28T19:57:35.547Z,102251.94
2022-08-28T20:00:04.400Z,102263.25
2022-08-28T20:02:31.057Z,102248.06
2022-08-28T20:04:57.652Z,102260.09
2022-08-28T20:07:24.982Z,102258.88
2022-08-28T20:09:52.292Z,102246.94
2022-08-28T20:12:19.660Z,102240.94
2022-08-28T20:14:46.851Z,102260.31
2022-08-28T20:17:14.083Z,102258.72
2022-08-28T20:19:41.212Z,102248.19
2022-08-28T20:22:07.938Z,102256.38
2022-08-28T20:24:35.024Z,102270.16
2022-08-28T20:27:01.553Z,102258.88
2022-08-28T20:29:28.326Z,102270.19
2022-08-28T20:31:54.939Z,102267.31
2022-08-28T20:34:21.769Z,102281.75
2022-08-28T20:36:49.016Z,102273.28
2022-08-28T20:39:15.926Z,102282.31
2022-08-28T20:41:44.324Z,102268.31
2022-08-28T20:44:13.067Z,102286.84
2022-08-28T20:46:41.969Z,102285.41
2022-08-28T20:49:10.482Z,102291.56
2022-08-28T20:51:55.559Z,102284.75
2022-08-28T20:54:39.358Z,102292.19
2022-08-28T20:57:09.404Z,102297.56
2022-08-28T20:59:39.842Z,102294.53
2022-08-28T21:02:16.651Z,102302.25
2022-08-28T21:04:45.496Z,102307.41
2022-08-28T21:07:13.901Z,102291.47
2022-08-28T21:10:05.029Z,102299.63
2022-08-28T21:12:27.579Z,102313.66
2022-08-28T21:14:54.179Z,102311.22
2022-08-28T21:17:29.785Z,102316.00
2022-08-28T21:20:01.779Z,102315.31
2022-08-28T21:22:31.325Z,102305.31
2022-08-28T21:24:58.252Z,102305.19
2022-08-28T21:27:24.992Z,102320.34
2022-08-28T21:29:54.485Z,102313.16
2022-08-28T21:32:21.087Z,102330.44
2022-08-28T21:34:47.684Z,102312.41
2022-08-28T21:37:15.349Z,102320.66
2022-08-28T21:39:41.823Z,102325.44
2022-08-28T21:42:08.454Z,102329.56
2022-08-28T21:44:35.234Z,102327.63
2022-08-28T21:47:01.727Z,102333.47
2022-08-28T21:49:28.467Z,102327.63
2022-08-28T21:51:54.967Z,102331.28
2022-08-28T21:54:23.214Z,102328.59
2022-08-28T21:56:50.602Z,102326.41
2022-08-28T21:59:25.637Z,102327.63
2022-08-28T22:01:57.392Z,102317.03
2022-08-28T22:04:24.396Z,102311.41
2022-08-28T22:06:50.877Z,102313.47
2022-08-28T22:09:17.402Z,102332.50
2022-08-28T22:11:44.053Z,102329.06
2022-08-28T22:14:11.042Z,102320.78
2022-08-28T22:16:37.627Z,102336.53
2022-08-28T22:19:04.233Z,102331.00
2022-08-28T22:21:50.527Z,102333.81
2022-08-28T22:24:17.356Z,102335.28
2022-08-28T22:26:44.105Z,102322.72
2022-08-28T22:29:11.193Z,102311.84
2022-08-28T22:31:45.456Z,102341.09
2022-08-28T22:34:13.844Z,102330.69
2022-08-28T22:36:40.337Z,102329.09
2022-08-28T22:39:06.983Z,102326.78
2022-08-28T22:41:33.657Z,102318.94
2022-08-28T22:44:00.196Z,102322.13
2022-08-28T22:46:27.838Z,102330.19
2022-08-28T22:48:54.588Z,102329.59
2022-08-28T22:51:21.124Z,102314.69
2022-08-28T22:53:48.548Z,102332.53
2022-08-28T22:56:17.102Z,102332.28
2022-08-28T22:58:43.877Z,102334.09
2022-08-28T23:01:19.570Z,102330.75
2022-08-28T23:03:46.744Z,102332.28
2022-08-28T23:06:13.905Z,102326.50
2022-08-28T23:08:40.668Z,102322.47
2022-08-28T23:11:07.246Z,102314.31
2022-08-28T23:13:34.222Z,102322.47
2022-08-28T23:16:01.476Z,102314.78
2022-08-28T23:18:28.608Z,102313.31
2022-08-28T23:20:55.632Z,102321.38
2022-08-28T23:23:23.068Z,102316.59
2022-08-28T23:25:50.505Z,102310.13
2022-08-28T23:28:18.266Z,102316.31
2022-08-28T23:30:49.746Z,102323.50
2022-08-28T23:33:23.764Z,102310.31
2022-08-28T23:35:51.440Z,102304.59
2022-08-28T23:38:18.013Z,102313.97
2022-08-28T23:40:44.569Z,102306.84
2022-08-28T23:43:11.681Z,102308.22
2022-08-28T23:45:42.390Z,102300.69
2022-08-28T23:48:09.648Z,102296.56
2022-08-28T23:50:39.801Z,102295.75
2022-08-28T23:53:08.365Z,102303.56
2022-08-28T23:55:35.949Z,102293.94
2022-08-28T23:58:02.848Z,102292.56
